Time;durP1;ratioP1;P1;durP2;ratioP2;P2;SDS_P1;SDS_P2;PMS_P1;PMS_P2;Temp;Humidity;BMP_temperature;BMP_pressure;BME280_temperature;BME280_humidity;BME280_pressure;Samples;Min_cycle;Max_cycle;Signal;HPM_P1;HPM_P2
2023/08/11 00:01:08;;;;;;;4.88;3.92;;;;;;;;;;4933954;29;20048;-90
2023/08/11 00:03:35;;;;;;;5.50;4.30;;;;;;;;;;4919321;29;20047;-90
2023/08/11 00:06:03;;;;;;;4.28;3.50;;;;;;;;;;4915431;29;20063;-91
2023/08/11 00:08:36;;;;;;;4.65;4.13;;;;;;;;;;4912753;29;20060;-90
2023/08/11 00:11:03;;;;;;;4.32;3.90;;;;;;;;;;4935351;29;20055;-90
2023/08/11 00:13:32;;;;;;;4.38;3.60;;;;;;;;;;4917284;29;20055;-91
2023/08/11 00:16:03;;;;;;;5.18;3.78;;;;;;;;;;4916204;29;20047;-91
2023/08/11 00:18:30;;;;;;;5.40;4.30;;;;;;;;;;4933710;29;20048;-91
2023/08/11 00:20:59;;;;;;;4.43;4.00;;;;;;;;;;4901889;29;20066;-91
2023/08/11 00:23:39;;;;;;;4.45;3.35;;;;;;;;;;4933846;29;20055;-91
2023/08/11 00:26:07;;;;;;;4.60;3.60;;;;;;;;;;4922529;29;20048;-91
2023/08/11 00:28:38;;;;;;;6.95;3.60;;;;;;;;;;4917616;29;20044;-91
2023/08/11 00:31:13;;;;;;;5.30;3.58;;;;;;;;;;4902316;29;20052;-91
2023/08/11 00:33:41;;;;;;;4.75;3.50;;;;;;;;;;4917067;29;20056;-90
2023/08/11 00:36:10;;;;;;;4.55;4.07;;;;;;;;;;4903684;29;20081;-91
2023/08/11 00:38:41;;;;;;;4.72;4.13;;;;;;;;;;4915603;29;20043;-91
2023/08/11 00:41:10;;;;;;;7.38;4.22;;;;;;;;;;4924152;29;20052;-92
2023/08/11 00:43:38;;;;;;;4.18;3.40;;;;;;;;;;4901351;29;20051;-91
2023/08/11 00:46:10;;;;;;;6.40;3.88;;;;;;;;;;4918705;29;20063;-91
2023/08/11 00:48:42;;;;;;;4.03;3.17;;;;;;;;;;4897684;29;20048;-92
2023/08/11 00:51:14;;;;;;;4.45;3.90;;;;;;;;;;4901921;29;20059;-91
2023/08/11 00:53:46;;;;;;;7.30;4.90;;;;;;;;;;4905117;29;20047;-91
2023/08/11 00:56:14;;;;;;;7.57;4.47;;;;;;;;;;4908763;29;20060;-91
2023/08/11 00:58:43;;;;;;;5.43;3.83;;;;;;;;;;4899897;29;20047;-90
2023/08/11 01:01:16;;;;;;;5.20;4.30;;;;;;;;;;4910859;29;20060;-90
2023/08/11 01:03:47;;;;;;;4.72;3.90;;;;;;;;;;4912904;29;20059;-90
2023/08/11 01:06:21;;;;;;;6.10;4.18;;;;;;;;;;4898368;29;20055;-90
2023/08/11 01:08:57;;;;;;;4.90;3.92;;;;;;;;;;4906905;29;20431;-90
2023/08/11 01:11:34;;;;;;;3.95;3.20;;;;;;;;;;4900419;29;20059;-90
2023/08/11 01:14:13;;;;;;;4.60;3.63;;;;;;;;;;4905169;29;20064;-90
2023/08/11 01:16:40;;;;;;;5.32;3.15;;;;;;;;;;4918464;29;20054;-90
2023/08/11 01:19:10;;;;;;;9.77;5.28;;;;;;;;;;4927684;29;20059;-91
2023/08/11 01:21:40;;;;;;;7.22;4.22;;;;;;;;;;4932745;29;20036;-91
2023/08/11 01:24:09;;;;;;;6.93;4.55;;;;;;;;;;4928242;29;20055;-90
2023/08/11 01:26:36;;;;;;;4.68;4.15;;;;;;;;;;4928799;29;20040;-90
2023/08/11 01:29:04;;;;;;;7.13;4.68;;;;;;;;;;4916883;29;20056;-90
2023/08/11 01:31:31;;;;;;;6.78;4.05;;;;;;;;;;4907936;29;20072;-89
2023/08/11 01:33:59;;;;;;;7.88;4.78;;;;;;;;;;4907574;29;20064;-90
2023/08/11 01:36:28;;;;;;;7.32;3.20;;;;;;;;;;4898347;29;20052;-90
2023/08/11 01:38:55;;;;;;;7.28;4.00;;;;;;;;;;4920061;29;20052;-91
2023/08/11 01:41:24;;;;;;;4.53;4.13;;;;;;;;;;4904279;29;20435;-90
2023/08/11 01:43:54;;;;;;;7.10;4.78;;;;;;;;;;4909813;29;20067;-89
2023/08/11 01:46:25;;;;;;;5.45;4.38;;;;;;;;;;4917909;29;20055;-90
2023/08/11 01:48:53;;;;;;;5.15;4.53;;;;;;;;;;4911924;29;20659;-91
2023/08/11 01:51:21;;;;;;;5.55;4.32;;;;;;;;;;4928157;29;20056;-91
2023/08/11 01:53:50;;;;;;;7.43;3.70;;;;;;;;;;4933596;29;20044;-89
2023/08/11 01:56:17;;;;;;;6.55;4.28;;;;;;;;;;4932512;29;20048;-91
2023/08/11 01:58:46;;;;;;;6.65;3.58;;;;;;;;;;4914151;29;20063;-89
2023/08/11 02:01:14;;;;;;;5.28;3.08;;;;;;;;;;4914244;29;20062;-90
2023/08/11 02:03:42;;;;;;;4.57;3.30;;;;;;;;;;4931903;29;20051;-91
2023/08/11 02:06:09;;;;;;;5.15;4.65;;;;;;;;;;4906154;29;20075;-90
2023/08/11 02:08:37;;;;;;;3.95;3.53;;;;;;;;;;4913932;29;20075;-90
2023/08/11 02:11:08;;;;;;;5.30;2.90;;;;;;;;;;4897945;29;20145;-91
2023/08/11 02:13:36;;;;;;;10.07;6.13;;;;;;;;;;4904379;29;20502;-90
2023/08/11 02:16:08;;;;;;;4.07;3.50;;;;;;;;;;4926280;29;20048;-90
2023/08/11 02:18:35;;;;;;;5.90;4.57;;;;;;;;;;4903386;29;20525;-92
2023/08/11 02:21:03;;;;;;;5.18;3.92;;;;;;;;;;4905013;29;20051;-91
2023/08/11 02:23:30;;;;;;;5.03;4.53;;;;;;;;;;4907996;29;20056;-90
2023/08/11 02:25:58;;;;;;;6.03;3.90;;;;;;;;;;4906488;29;20091;-90
2023/08/11 02:28:25;;;;;;;5.75;4.22;;;;;;;;;;4914605;29;20055;-90
2023/08/11 02:30:55;;;;;;;4.28;3.42;;;;;;;;;;4911698;29;20048;-90
2023/08/11 02:33:25;;;;;;;5.72;3.72;;;;;;;;;;4912378;29;20075;-91
2023/08/11 02:35:52;;;;;;;5.32;4.15;;;;;;;;;;4909895;29;20055;-91
2023/08/11 02:38:19;;;;;;;7.22;3.80;;;;;;;;;;4928215;29;20055;-90
2023/08/11 02:40:47;;;;;;;9.38;3.88;;;;;;;;;;4927322;29;20054;-90
2023/08/11 02:43:14;;;;;;;5.65;3.33;;;;;;;;;;4928543;29;20051;-90
2023/08/11 02:45:44;;;;;;;5.20;3.55;;;;;;;;;;4912809;29;20411;-92
2023/08/11 02:48:11;;;;;;;4.40;3.90;;;;;;;;;;4902657;29;20059;-90
2023/08/11 02:50:43;;;;;;;3.70;3.15;;;;;;;;;;4896836;29;20090;-90
2023/08/11 02:53:10;;;;;;;5.95;3.05;;;;;;;;;;4908366;29;20439;-91
2023/08/11 02:55:38;;;;;;;4.30;3.60;;;;;;;;;;4914338;29;20062;-91
2023/08/11 02:58:05;;;;;;;3.78;3.40;;;;;;;;;;4906471;29;20071;-90
2023/08/11 03:00:34;;;;;;;8.40;3.20;;;;;;;;;;4910339;29;20062;-90
2023/08/11 03:03:01;;;;;;;5.97;3.83;;;;;;;;;;4930563;29;20062;-91
2023/08/11 03:05:29;;;;;;;4.45;4.05;;;;;;;;;;4914012;29;20066;-90
2023/08/11 03:07:58;;;;;;;6.40;4.43;;;;;;;;;;4911934;29;20044;-90
2023/08/11 03:10:26;;;;;;;4.40;3.83;;;;;;;;;;4915230;29;20415;-91
2023/08/11 03:12:54;;;;;;;5.20;3.80;;;;;;;;;;4909539;29;20059;-90
2023/08/11 03:15:23;;;;;;;5.05;4.22;;;;;;;;;;4901475;29;20058;-91
2023/08/11 03:17:50;;;;;;;3.67;3.33;;;;;;;;;;4897515;29;20051;-90
2023/08/11 03:20:18;;;;;;;10.38;3.53;;;;;;;;;;4901508;29;20415;-91
2023/08/11 03:22:48;;;;;;;4.68;3.85;;;;;;;;;;4901602;29;20067;-92
2023/08/11 03:25:21;;;;;;;10.00;4.15;;;;;;;;;;4899837;29;20058;-91
2023/08/11 03:27:50;;;;;;;5.15;3.88;;;;;;;;;;4920398;29;20511;-92
2023/08/11 03:30:24;;;;;;;5.20;3.78;;;;;;;;;;4922703;29;20058;-91
2023/08/11 03:32:53;;;;;;;6.47;5.05;;;;;;;;;;4923512;29;20728;-91
2023/08/11 03:35:23;;;;;;;5.50;4.30;;;;;;;;;;4904091;29;20052;-92
2023/08/11 03:37:51;;;;;;;5.93;4.63;;;;;;;;;;4911802;29;20063;-91
2023/08/11 03:40:19;;;;;;;7.93;4.43;;;;;;;;;;4900988;29;20051;-92
2023/08/11 03:42:54;;;;;;;;;;;;;;;;;;4919017;29;20075;-91
2023/08/11 03:45:24;;;;;;;6.63;3.92;;;;;;;;;;4915757;29;19927;-92
2023/08/11 03:47:51;;;;;;;5.63;4.18;;;;;;;;;;4918666;29;20070;-91
2023/08/11 03:50:22;;;;;;;4.85;4.30;;;;;;;;;;4915427;29;20422;-91
2023/08/11 03:52:49;;;;;;;6.15;3.83;;;;;;;;;;4916467;29;20526;-91
2023/08/11 03:55:17;;;;;;;4.20;3.80;;;;;;;;;;4898877;29;20675;-91
2023/08/11 03:57:45;;;;;;;5.47;3.72;;;;;;;;;;4917852;29;20055;-91
2023/08/11 04:00:19;;;;;;;4.47;3.72;;;;;;;;;;4918811;29;20050;-91
2023/08/11 04:02:54;;;;;;;5.22;3.95;;;;;;;;;;4910192;29;20062;-91
2023/08/11 04:05:25;;;;;;;7.13;5.32;;;;;;;;;;4919863;29;20063;-91
2023/08/11 04:07:53;;;;;;;3.63;3.33;;;;;;;;;;4911515;29;20054;-91
2023/08/11 04:10:20;;;;;;;5.25;4.38;;;;;;;;;;4912969;29;20044;-92
2023/08/11 04:12:48;;;;;;;5.78;3.75;;;;;;;;;;4925780;29;20056;-91
2023/08/11 04:15:15;;;;;;;6.10;4.43;;;;;;;;;;4918742;29;20051;-91
2023/08/11 04:17:44;;;;;;;5.07;4.38;;;;;;;;;;4907598;29;20044;-91
2023/08/11 04:20:12;;;;;;;4.45;3.83;;;;;;;;;;4924203;29;20051;-91
2023/08/11 04:22:45;;;;;;;4.85;3.42;;;;;;;;;;4927569;29;20450;-91
2023/08/11 04:25:17;;;;;;;4.97;4.00;;;;;;;;;;4909938;29;20442;-91
2023/08/11 04:27:48;;;;;;;6.32;3.90;;;;;;;;;;4911443;29;20408;-91
2023/08/11 04:30:15;;;;;;;5.40;4.15;;;;;;;;;;4907395;29;20044;-91
2023/08/11 04:32:47;;;;;;;7.22;4.85;;;;;;;;;;4916384;29;20552;-91
2023/08/11 04:35:16;;;;;;;6.97;3.80;;;;;;;;;;4899958;29;20062;-91
2023/08/11 04:37:45;;;;;;;8.15;4.60;;;;;;;;;;4913355;29;20059;-91
2023/08/11 04:40:16;;;;;;;4.22;3.33;;;;;;;;;;4906904;29;20051;-91
2023/08/11 04:42:46;;;;;;;6.15;4.18;;;;;;;;;;4931074;29;20052;-90
2023/08/11 04:45:17;;;;;;;5.68;3.80;;;;;;;;;;4908262;29;20059;-91
2023/08/11 04:47:49;;;;;;;5.93;4.72;;;;;;;;;;4927392;29;20056;-91
2023/08/11 04:50:20;;;;;;;6.32;4.32;;;;;;;;;;4908320;29;20052;-90
2023/08/11 04:52:51;;;;;;;4.22;3.38;;;;;;;;;;4915884;29;20063;-90
2023/08/11 04:55:19;;;;;;;4.53;4.13;;;;;;;;;;4902401;29;20176;-91
2023/08/11 04:57:48;;;;;;;4.63;4.10;;;;;;;;;;4920478;29;20052;-91
2023/08/11 05:00:16;;;;;;;4.88;4.15;;;;;;;;;;4904837;29;20043;-91
2023/08/11 05:02:44;;;;;;;5.28;4.70;;;;;;;;;;4916575;29;20423;-91
2023/08/11 05:05:13;;;;;;;6.95;3.97;;;;;;;;;;4928870;29;20894;-90
2023/08/11 05:07:41;;;;;;;6.53;4.10;;;;;;;;;;4915980;29;20044;-91
2023/08/11 05:10:09;;;;;;;3.95;3.22;;;;;;;;;;4899378;29;20062;-91
2023/08/11 05:12:36;;;;;;;5.80;4.40;;;;;;;;;;4934948;29;20056;-91
2023/08/11 05:15:07;;;;;;;5.93;4.43;;;;;;;;;;4910618;29;20056;-91
2023/08/11 05:17:34;;;;;;;4.90;3.47;;;;;;;;;;4932158;29;20067;-91
2023/08/11 05:20:06;;;;;;;5.30;4.80;;;;;;;;;;4922607;29;20063;-90
2023/08/11 05:22:38;;;;;;;5.65;4.55;;;;;;;;;;4933684;29;20043;-90
2023/08/11 05:25:09;;;;;;;5.88;4.57;;;;;;;;;;4909575;29;20078;-91
2023/08/11 05:27:39;;;;;;;5.35;4.28;;;;;;;;;;4933259;29;20078;-92
2023/08/11 05:30:08;;;;;;;4.53;3.00;;;;;;;;;;4914985;29;20044;-90
2023/08/11 05:32:40;;;;;;;6.80;3.65;;;;;;;;;;4927379;29;20055;-92
2023/08/11 05:35:10;;;;;;;4.07;2.95;;;;;;;;;;4932758;29;20048;-91
2023/08/11 05:37:38;;;;;;;8.35;3.28;;;;;;;;;;4933990;29;20044;-91
2023/08/11 05:40:09;;;;;;;9.98;3.20;;;;;;;;;;4915096;29;20527;-91
2023/08/11 05:42:39;;;;;;;5.47;3.75;;;;;;;;;;4898249;29;20062;-91
2023/08/11 05:45:08;;;;;;;4.53;3.40;;;;;;;;;;4918600;29;20058;-91
2023/08/11 05:47:38;;;;;;;5.20;3.47;;;;;;;;;;4901862;29;20071;-92
2023/08/11 05:50:08;;;;;;;5.15;3.00;;;;;;;;;;4920737;29;20048;-92
2023/08/11 05:52:37;;;;;;;4.30;3.10;;;;;;;;;;4923394;29;20055;-91
2023/08/11 05:55:08;;;;;;;5.85;2.70;;;;;;;;;;4921065;29;20047;-91
2023/08/11 05:57:35;;;;;;;3.72;3.22;;;;;;;;;;4915445;29;20164;-90
2023/08/11 06:00:03;;;;;;;4.45;3.20;;;;;;;;;;4925556;29;20062;-91
2023/08/11 06:02:40;;;;;;;3.80;2.83;;;;;;;;;;4931967;29;20039;-91
2023/08/11 06:05:08;;;;;;;4.07;3.13;;;;;;;;;;4921468;29;20077;-92
2023/08/11 06:07:36;;;;;;;3.50;2.70;;;;;;;;;;4931335;29;20062;-91
2023/08/11 06:10:06;;;;;;;3.65;2.38;;;;;;;;;;4902731;29;20054;-93
2023/08/11 06:12:33;;;;;;;4.10;2.80;;;;;;;;;;4911692;29;20044;-93
2023/08/11 06:15:04;;;;;;;3.05;2.75;;;;;;;;;;4914923;29;20047;-92
2023/08/11 06:17:31;;;;;;;7.22;2.50;;;;;;;;;;4915993;29;20587;-92
2023/08/11 06:20:01;;;;;;;3.58;3.28;;;;;;;;;;4896624;29;20044;-91
2023/08/11 06:22:29;;;;;;;3.70;2.65;;;;;;;;;;4913669;29;20048;-91
2023/08/11 06:24:56;;;;;;;9.27;3.08;;;;;;;;;;4928804;29;20051;-92
2023/08/11 06:27:25;;;;;;;2.80;2.53;;;;;;;;;;4931980;29;20044;-92
2023/08/11 06:29:52;;;;;;;2.95;2.03;;;;;;;;;;4927121;29;20051;-90
2023/08/11 06:32:20;;;;;;;2.72;2.53;;;;;;;;;;4900650;29;20059;-92
2023/08/11 06:34:46;;;;;;;2.95;2.65;;;;;;;;;;4929321;29;20055;-92
2023/08/11 06:37:14;;;;;;;5.70;2.33;;;;;;;;;;4904132;29;20052;-91
2023/08/11 06:39:41;;;;;;;2.75;2.55;;;;;;;;;;4913350;29;20056;-91
2023/08/11 06:42:10;;;;;;;4.18;2.42;;;;;;;;;;4920625;29;20051;-92
2023/08/11 06:45:08;;;;;;;2.65;2.45;;;;;;;;;;4922953;29;20063;-92
2023/08/11 06:47:35;;;;;;;9.57;3.83;;;;;;;;;;4900329;29;20062;-91
2023/08/11 06:50:04;;;;;;;2.60;2.40;;;;;;;;;;4913275;29;20047;-92
2023/08/11 06:52:32;;;;;;;3.33;2.60;;;;;;;;;;4930103;29;20046;-92
2023/08/11 06:55:00;;;;;;;3.67;3.30;;;;;;;;;;4898887;29;20085;-91
2023/08/11 06:57:29;;;;;;;3.05;2.75;;;;;;;;;;4929230;29;20054;-92
2023/08/11 06:59:59;;;;;;;3.17;2.60;;;;;;;;;;4913913;29;20071;-91
2023/08/11 07:02:28;;;;;;;6.38;2.72;;;;;;;;;;4910752;29;20056;-92
2023/08/11 07:04:55;;;;;;;3.15;2.53;;;;;;;;;;4914348;29;20059;-92
2023/08/11 07:07:23;;;;;;;5.45;2.40;;;;;;;;;;4911535;29;20534;-91
2023/08/11 07:10:03;;;;;;;2.90;2.25;;;;;;;;;;4912115;29;20056;-91
2023/08/11 07:12:34;;;;;;;2.88;2.42;;;;;;;;;;4921499;29;20043;-93
2023/08/11 07:15:03;;;;;;;4.10;2.20;;;;;;;;;;4929882;29;20089;-94
2023/08/11 07:17:31;;;;;;;3.17;2.30;;;;;;;;;;4892914;29;20058;-93
2023/08/11 07:19:59;;;;;;;2.75;2.47;;;;;;;;;;4922249;29;20058;-92
2023/08/11 07:22:26;;;;;;;3.67;2.13;;;;;;;;;;4925359;29;20059;-92
2023/08/11 07:24:54;;;;;;;2.70;2.50;;;;;;;;;;4913216;29;20132;-92
2023/08/11 07:27:21;;;;;;;3.13;2.47;;;;;;;;;;4900748;29;20061;-93
2023/08/11 07:29:51;;;;;;;3.25;2.45;;;;;;;;;;4911944;29;20060;-93
2023/08/11 07:32:22;;;;;;;3.58;2.55;;;;;;;;;;4891409;29;20047;-91
2023/08/11 07:34:50;;;;;;;3.92;2.63;;;;;;;;;;4907796;29;20055;-93
2023/08/11 07:37:18;;;;;;;5.10;3.42;;;;;;;;;;4929515;29;20051;-92
2023/08/11 07:39:48;;;;;;;3.40;2.72;;;;;;;;;;4917223;29;20064;-92
2023/08/11 07:42:17;;;;;;;5.03;2.25;;;;;;;;;;4934082;29;20055;-92
2023/08/11 07:44:45;;;;;;;3.08;2.53;;;;;;;;;;4917766;29;20048;-94
2023/08/11 07:47:12;;;;;;;7.60;3.05;;;;;;;;;;4937107;29;20052;-93
2023/08/11 07:49:44;;;;;;;3.10;2.65;;;;;;;;;;4921187;29;20052;-93
2023/08/11 07:52:13;;;;;;;6.63;3.47;;;;;;;;;;4921484;29;20515;-93
2023/08/11 07:54:40;;;;;;;3.00;2.38;;;;;;;;;;4922284;29;20059;-93
2023/08/11 07:57:08;;;;;;;2.92;2.72;;;;;;;;;;4940788;29;20055;-94
2023/08/11 07:59:35;;;;;;;3.03;2.40;;;;;;;;;;4921439;29;20047;-92
2023/08/11 08:02:05;;;;;;;3.65;2.90;;;;;;;;;;4922903;29;20043;-93
2023/08/11 08:04:33;;;;;;;4.32;3.05;;;;;;;;;;4932797;29;20414;-92
2023/08/11 08:07:00;;;;;;;4.47;2.72;;;;;;;;;;4912259;29;20056;-94
2023/08/11 08:09:33;;;;;;;5.82;2.63;;;;;;;;;;4918866;29;20051;-92
2023/08/11 08:12:03;;;;;;;2.83;1.70;;;;;;;;;;4919497;29;20140;-94
2023/08/11 08:14:33;;;;;;;4.68;2.78;;;;;;;;;;4903513;29;20051;-94
2023/08/11 08:17:01;;;;;;;5.38;3.20;;;;;;;;;;4926628;29;20056;-91
2023/08/11 08:19:28;;;;;;;4.32;2.53;;;;;;;;;;4899297;29;20051;-94
2023/08/11 08:22:03;;;;;;;3.47;2.28;;;;;;;;;;4931099;29;20056;-92
2023/08/11 08:24:43;;;;;;;2.58;2.20;;;;;;;;;;4911965;29;20423;-93
2023/08/11 08:27:14;;;;;;;3.60;2.70;;;;;;;;;;4931867;29;20048;-92
2023/08/11 08:29:42;;;;;;;2.97;2.67;;;;;;;;;;4915871;29;20059;-93
2023/08/11 08:32:09;;;;;;;3.28;2.92;;;;;;;;;;4928895;29;20056;-92
2023/08/11 08:34:39;;;;;;;2.75;2.40;;;;;;;;;;4912946;29;20047;-92
2023/08/11 08:37:07;;;;;;;2.83;2.53;;;;;;;;;;4927173;29;20067;-93
2023/08/11 08:39:34;;;;;;;2.95;2.22;;;;;;;;;;4921665;29;20051;-92
2023/08/11 08:42:04;;;;;;;3.80;2.50;;;;;;;;;;4932648;29;20516;-94
2023/08/11 08:44:35;;;;;;;3.78;2.35;;;;;;;;;;4898436;29;20055;-93
2023/08/11 08:47:06;;;;;;;3.15;2.47;;;;;;;;;;4932908;29;20052;-93
2023/08/11 08:49:37;;;;;;;3.88;2.70;;;;;;;;;;4900758;29;20048;-93
2023/08/11 08:52:05;;;;;;;2.50;2.30;;;;;;;;;;4918702;29;20059;-92
2023/08/11 08:54:38;;;;;;;4.35;2.33;;;;;;;;;;4905318;29;21747;-93
2023/08/11 08:57:09;;;;;;;3.10;2.15;;;;;;;;;;4906535;29;20071;-92
2023/08/11 08:59:37;;;;;;;3.30;2.55;;;;;;;;;;4924732;29;20062;-93
2023/08/11 09:02:09;;;;;;;2.90;2.25;;;;;;;;;;4899061;29;20067;-94
2023/08/11 09:04:37;;;;;;;4.03;2.50;;;;;;;;;;4910029;29;20056;-92
2023/08/11 09:07:05;;;;;;;4.28;3.13;;;;;;;;;;4915896;29;20059;-93
2023/08/11 09:09:32;;;;;;;3.88;2.60;;;;;;;;;;4905933;29;20044;-92
2023/08/11 09:12:01;;;;;;;2.95;2.40;;;;;;;;;;4915532;29;20051;-92
2023/08/11 09:14:31;;;;;;;3.25;2.83;;;;;;;;;;4916852;29;20050;-93
2023/08/11 09:16:59;;;;;;;3.13;2.83;;;;;;;;;;4929122;29;20055;-92
2023/08/11 09:19:27;;;;;;;4.70;2.55;;;;;;;;;;4923479;29;20059;-92
2023/08/11 09:22:06;;;;;;;3.40;2.40;;;;;;;;;;4912576;29;20511;-96
2023/08/11 09:24:34;;;;;;;3.55;2.58;;;;;;;;;;4930944;29;20519;-93
2023/08/11 09:27:03;;;;;;;3.63;2.58;;;;;;;;;;4911131;29;20056;-92
2023/08/11 09:29:31;;;;;;;2.53;2.28;;;;;;;;;;4914650;29;20110;-92
2023/08/11 09:32:03;;;;;;;6.47;2.60;;;;;;;;;;4918571;29;20062;-92
2023/08/11 09:34:34;;;;;;;2.45;2.25;;;;;;;;;;4905863;29;20051;-92
2023/08/11 09:37:02;;;;;;;3.75;2.92;;;;;;;;;;4927633;29;20076;-92
2023/08/11 09:39:30;;;;;;;3.00;2.42;;;;;;;;;;4933450;29;20044;-92
2023/08/11 09:41:57;;;;;;;3.28;2.47;;;;;;;;;;4915357;29;20052;-93
2023/08/11 09:44:27;;;;;;;3.45;1.80;;;;;;;;;;4930859;29;20064;-92
2023/08/11 09:47:04;;;;;;;4.15;2.08;;;;;;;;;;4904902;29;20056;-93
2023/08/11 09:49:32;;;;;;;2.72;2.53;;;;;;;;;;4900643;29;20063;-93
2023/08/11 09:52:02;;;;;;;2.30;1.98;;;;;;;;;;4912144;29;20434;-92
2023/08/11 09:54:29;;;;;;;3.75;2.50;;;;;;;;;;4915326;29;20044;-92
2023/08/11 09:56:57;;;;;;;2.15;1.70;;;;;;;;;;4910438;29;20064;-92
2023/08/11 09:59:48;;;;;;;3.45;2.05;;;;;;;;;;4903373;29;20059;-92
2023/08/11 10:02:18;;;;;;;2.38;2.13;;;;;;;;;;4928639;29;20051;-92
2023/08/11 10:05:05;;;;;;;2.33;1.92;;;;;;;;;;4897080;29;20055;-92
2023/08/11 10:08:18;;;;;;;3.38;1.80;;;;;;;;;;4930609;29;20043;-96
2023/08/11 10:11:06;;;;;;;2.45;1.83;;;;;;;;;;4912258;29;20063;-93
2023/08/11 10:13:37;;;;;;;3.67;1.83;;;;;;;;;;4924711;29;20048;-93
2023/08/11 10:16:05;;;;;;;2.22;2.03;;;;;;;;;;4908915;29;20078;-93
2023/08/11 10:18:35;;;;;;;2.15;1.95;;;;;;;;;;4912321;29;20443;-92
2023/08/11 10:21:03;;;;;;;5.38;2.47;;;;;;;;;;4909419;29;20056;-93
2023/08/11 10:23:38;;;;;;;2.28;1.73;;;;;;;;;;4923956;29;20054;-94
2023/08/11 10:26:31;;;;;;;2.65;2.45;;;;;;;;;;4926571;29;20056;-94
2023/08/11 10:29:02;;;;;;;3.10;2.13;;;;;;;;;;4916646;29;20416;-94
2023/08/11 10:31:32;;;;;;;4.97;1.88;;;;;;;;;;4902004;29;20061;-93
2023/08/11 10:34:06;;;;;;;2.97;2.38;;;;;;;;;;4929509;29;20078;-94
2023/08/11 10:36:39;;;;;;;5.45;2.85;;;;;;;;;;4923480;29;20051;-94
2023/08/11 10:39:36;;;;;;;4.57;2.13;;;;;;;;;;4921132;29;20071;-93
2023/08/11 10:42:04;;;;;;;3.58;2.00;;;;;;;;;;4936376;29;20051;-93
2023/08/11 10:44:31;;;;;;;2.63;2.42;;;;;;;;;;4938514;29;20043;-94
2023/08/11 10:47:00;;;;;;;2.35;2.15;;;;;;;;;;4916316;29;20507;-94
2023/08/11 10:49:33;;;;;;;2.58;2.35;;;;;;;;;;4930779;29;20094;-93
2023/08/11 10:52:04;;;;;;;2.47;2.28;;;;;;;;;;4929660;29;20507;-94
2023/08/11 10:54:32;;;;;;;3.13;2.55;;;;;;;;;;4925373;29;20044;-93
2023/08/11 10:57:06;;;;;;;2.53;2.00;;;;;;;;;;4934907;29;20043;-94
2023/08/11 10:59:34;;;;;;;2.67;2.35;;;;;;;;;;4917471;29;20043;-93
2023/08/11 11:02:04;;;;;;;2.70;2.08;;;;;;;;;;4930601;29;20051;-93
2023/08/11 11:04:36;;;;;;;2.35;1.90;;;;;;;;;;4916211;29;20048;-93
2023/08/11 11:07:05;;;;;;;2.70;2.15;;;;;;;;;;4923051;29;20042;-91
2023/08/11 11:09:40;;;;;;;3.05;2.20;;;;;;;;;;4951066;29;20044;-93
2023/08/11 11:12:09;;;;;;;2.67;2.30;;;;;;;;;;4916677;29;20055;-94
2023/08/11 11:14:40;;;;;;;3.83;2.30;;;;;;;;;;4909695;29;20056;-93
2023/08/11 11:17:09;;;;;;;2.83;1.98;;;;;;;;;;4937609;29;20046;-93
2023/08/11 11:19:38;;;;;;;2.50;2.30;;;;;;;;;;4930063;29;20055;-93
2023/08/11 11:22:07;;;;;;;2.35;2.15;;;;;;;;;;4915917;29;20052;-93
2023/08/11 11:24:35;;;;;;;2.53;2.33;;;;;;;;;;4919997;29;20044;-94
2023/08/11 11:27:03;;;;;;;3.13;2.22;;;;;;;;;;4912642;29;20427;-93
2023/08/11 11:29:31;;;;;;;2.45;2.20;;;;;;;;;;4931902;29;20054;-92
2023/08/11 11:32:06;;;;;;;3.80;2.90;;;;;;;;;;4928931;29;20052;-93
2023/08/11 11:34:37;;;;;;;3.03;2.60;;;;;;;;;;4910175;29;20059;-92
2023/08/11 11:37:06;;;;;;;2.65;2.33;;;;;;;;;;4934258;29;20051;-94
2023/08/11 11:39:39;;;;;;;2.67;2.13;;;;;;;;;;4925160;29;20530;-93
2023/08/11 11:42:09;;;;;;;3.88;2.00;;;;;;;;;;4920313;29;20057;-92
2023/08/11 11:44:37;;;;;;;2.75;2.40;;;;;;;;;;4917265;29;20046;-93
2023/08/11 11:47:06;;;;;;;3.60;2.17;;;;;;;;;;4901656;29;20051;-92
2023/08/11 11:49:33;;;;;;;5.80;2.17;;;;;;;;;;4935343;29;20047;-94
2023/08/11 11:52:01;;;;;;;4.05;2.20;;;;;;;;;;4931325;29;20144;-93
2023/08/11 11:54:33;;;;;;;4.53;3.00;;;;;;;;;;4935295;29;20043;-93
2023/08/11 11:57:05;;;;;;;3.13;2.47;;;;;;;;;;4918626;29;20059;-93
2023/08/11 11:59:33;;;;;;;3.17;2.60;;;;;;;;;;4921580;29;20463;-93
2023/08/11 12:02:01;;;;;;;2.30;2.10;;;;;;;;;;4919109;29;20047;-93
2023/08/11 12:04:28;;;;;;;1.80;1.65;;;;;;;;;;4918164;29;20052;-93
2023/08/11 12:06:56;;;;;;;1.70;1.60;;;;;;;;;;4908400;29;20079;-94
2023/08/11 12:09:24;;;;;;;3.05;2.50;;;;;;;;;;4910874;29;20047;-93
2023/08/11 12:11:56;;;;;;;2.15;1.95;;;;;;;;;;4922051;29;20059;-92
2023/08/11 12:14:26;;;;;;;;;;;;;;;;;;4922550;29;20047;-93
2023/08/11 12:16:57;;;;;;;2.92;2.10;;;;;;;;;;4929154;29;19927;-92
2023/08/11 12:19:25;;;;;;;3.58;2.08;;;;;;;;;;4924107;29;20070;-93
2023/08/11 12:21:53;;;;;;;2.25;2.00;;;;;;;;;;4931617;29;20055;-93
2023/08/11 12:24:22;;;;;;;4.60;2.75;;;;;;;;;;4915363;29;20047;-92
2023/08/11 12:26:49;;;;;;;2.33;2.13;;;;;;;;;;4924307;29;20062;-93
2023/08/11 12:32:47;;;;;;;2.88;2.10;;;;;;;;;;4910566;29;20051;-93
2023/08/11 12:35:17;;;;;;;2.33;2.05;;;;;;;;;;4914489;29;20518;-93
2023/08/11 12:37:47;;;;;;;2.60;1.92;;;;;;;;;;4921067;29;20055;-92
2023/08/11 12:40:18;;;;;;;8.02;2.70;;;;;;;;;;4911696;29;20066;-93
2023/08/11 12:42:48;;;;;;;6.07;2.20;;;;;;;;;;4917413;29;20066;-94
2023/08/11 12:45:18;;;;;;;5.00;2.03;;;;;;;;;;4918520;29;20415;-92
2023/08/11 12:47:49;;;;;;;4.90;2.10;;;;;;;;;;4938128;29;20542;-91
2023/08/11 12:50:18;;;;;;;4.60;2.10;;;;;;;;;;4938509;29;20055;-92
2023/08/11 12:52:46;;;;;;;2.40;2.05;;;;;;;;;;4945814;29;20063;-91
2023/08/11 12:55:13;;;;;;;5.22;2.20;;;;;;;;;;4913347;29;20044;-91
2023/08/11 12:57:43;;;;;;;1.85;1.30;;;;;;;;;;4945478;29;20052;-91
2023/08/11 13:00:12;;;;;;;1.90;1.73;;;;;;;;;;4919158;29;20072;-90
2023/08/11 13:02:39;;;;;;;2.72;2.05;;;;;;;;;;4935942;29;20059;-93
2023/08/11 13:05:08;;;;;;;2.58;1.90;;;;;;;;;;4920412;29;20055;-93
2023/08/11 13:07:37;;;;;;;7.45;2.33;;;;;;;;;;4928767;29;20048;-94
2023/08/11 13:10:05;;;;;;;2.28;1.92;;;;;;;;;;4945646;29;20582;-92
2023/08/11 13:12:35;;;;;;;2.20;1.60;;;;;;;;;;4902010;29;20044;-93
2023/08/11 13:15:03;;;;;;;4.60;2.28;;;;;;;;;;4925411;29;20058;-95
2023/08/11 13:17:31;;;;;;;2.83;1.55;;;;;;;;;;4921431;29;20058;-94
2023/08/11 13:20:06;;;;;;;7.22;1.80;;;;;;;;;;4927738;29;20052;-94
2023/08/11 13:22:37;;;;;;;3.10;2.47;;;;;;;;;;4927149;29;20063;-94
2023/08/11 13:25:06;;;;;;;1.60;1.40;;;;;;;;;;4942950;29;20059;-94
2023/08/11 13:27:34;;;;;;;3.67;2.13;;;;;;;;;;4944907;29;20055;-95
2023/08/11 13:30:06;;;;;;;3.00;2.25;;;;;;;;;;4927212;29;20075;-94
2023/08/11 13:32:36;;;;;;;2.40;1.85;;;;;;;;;;4934120;29;20058;-93
2023/08/11 13:35:05;;;;;;;2.10;1.80;;;;;;;;;;4934002;29;20530;-93
2023/08/11 13:37:32;;;;;;;2.15;1.95;;;;;;;;;;4937450;29;20063;-94
2023/08/11 13:40:07;;;;;;;3.65;2.13;;;;;;;;;;4944216;29;20048;-94
2023/08/11 13:42:37;;;;;;;2.45;1.75;;;;;;;;;;4939972;29;20051;-92
2023/08/11 13:45:08;;;;;;;2.38;2.10;;;;;;;;;;4912228;29;20039;-91
2023/08/11 13:47:35;;;;;;;4.68;2.50;;;;;;;;;;4946147;29;20059;-90
2023/08/11 13:50:03;;;;;;;2.70;2.05;;;;;;;;;;4927406;29;20051;-92
2023/08/11 13:52:30;;;;;;;1.65;1.55;;;;;;;;;;4933488;29;20051;-91
2023/08/11 13:54:58;;;;;;;2.50;2.30;;;;;;;;;;4902193;29;20043;-90
2023/08/11 13:57:27;;;;;;;2.03;1.83;;;;;;;;;;4937673;29;20082;-91
2023/08/11 13:59:57;;;;;;;2.47;2.00;;;;;;;;;;4927173;29;20047;-91
2023/08/11 14:02:25;;;;;;;2.55;2.13;;;;;;;;;;4936762;29;20062;-91
2023/08/11 14:04:52;;;;;;;2.35;1.75;;;;;;;;;;4911528;29;20055;-89
2023/08/11 14:07:20;;;;;;;2.20;1.75;;;;;;;;;;4912429;29;20059;-91
2023/08/11 14:09:56;;;;;;;1.80;1.70;;;;;;;;;;4940378;29;20043;-90
2023/08/11 14:12:27;;;;;;;1.92;1.70;;;;;;;;;;4927381;29;20044;-91
2023/08/11 14:14:56;;;;;;;4.55;2.60;;;;;;;;;;4922897;29;20060;-92
2023/08/11 14:17:26;;;;;;;3.45;2.30;;;;;;;;;;4942082;29;20055;-90
2023/08/11 14:19:55;;;;;;;5.22;2.05;;;;;;;;;;4925048;29;20086;-92
2023/08/11 14:22:24;;;;;;;3.97;1.92;;;;;;;;;;4910665;29;20515;-92
2023/08/11 14:24:52;;;;;;;5.68;2.55;;;;;;;;;;4940613;29;20059;-92
2023/08/11 14:27:22;;;;;;;2.38;2.15;;;;;;;;;;4927959;29;20048;-91
2023/08/11 14:29:50;;;;;;;3.05;2.22;;;;;;;;;;4920069;29;20051;-90
2023/08/11 14:32:18;;;;;;;2.20;1.75;;;;;;;;;;4908399;29;20051;-93
2023/08/11 14:34:45;;;;;;;3.30;2.00;;;;;;;;;;4925964;29;20427;-91
2023/08/11 14:37:16;;;;;;;2.47;1.85;;;;;;;;;;4926268;29;20047;-93
2023/08/11 14:39:43;;;;;;;1.98;1.73;;;;;;;;;;4930490;29;20059;-90
2023/08/11 14:42:11;;;;;;;2.83;2.08;;;;;;;;;;4941595;29;20053;-91
2023/08/11 14:44:38;;;;;;;4.47;2.20;;;;;;;;;;4906190;29;20048;-91
2023/08/11 14:47:12;;;;;;;6.05;2.83;;;;;;;;;;4917852;29;20079;-91
2023/08/11 14:49:40;;;;;;;4.68;1.70;;;;;;;;;;4919055;29;20059;-92
2023/08/11 14:52:07;;;;;;;6.30;2.40;;;;;;;;;;4919506;29;20044;-91
2023/08/11 14:54:39;;;;;;;2.45;2.03;;;;;;;;;;4889158;29;20062;-91
2023/08/11 14:57:09;;;;;;;3.33;1.67;;;;;;;;;;4918259;29;20056;-91
2023/08/11 14:59:36;;;;;;;2.45;2.13;;;;;;;;;;4926940;29;20040;-91
2023/08/11 15:02:17;;;;;;;2.92;2.00;;;;;;;;;;4923161;29;20040;-92